nws-alerts: Checking more than four warning/county codes can delay the loading of your pages. You should use a cron job to get the data.
EllijayWeather Station Historical Data
Daily Summary for March 12, 2019 Units:  Metric    English   Both
Daily Weekly Monthly Yearly Custom
  High: Low: Average:
Temperature: 18.3 °C 1.4 °C 9.2 °C
Dew Point: 8.2 °C -1.5 °C 3.8 °C
Humidity: 99% 27% 74%
Wind Speed: 9.7km/h 0km/h 0.2km/h
Wind Gust: 12.9km/h - -
Wind- - South
Pressure: 1027.7 hPa 1024.9 hPa -
Precipitation: 0 mm    
Historical Graphs
 
 
Tabular Data for March 12, 2019
Time Temperature Dew Point Pressure Wind Wind Speed Wind Gust Humidity Rainfall Rate (Hourly) solar
00:04 5.4 °C 4.8 °C 1026.6 hPa Calm     96% 0 mm meteobridge W/m2
00:09 5.4 °C 4.8 °C 1026.6 hPa Calm     96% 0 mm meteobridge W/m2
00:14 5.3 °C 4.7 °C 1026.6 hPa Calm     96% 0 mm meteobridge W/m2
00:19 5.3 °C 4.9 °C 1027 hPa Calm     97% 0 mm meteobridge W/m2
00:24 5.2 °C 4.8 °C 1026.6 hPa Calm     97% 0 mm meteobridge W/m2
00:29 5.2 °C 4.8 °C 1026.6 hPa Calm     97% 0 mm meteobridge W/m2
00:34 5.2 °C 4.8 °C 1026.6 hPa Calm     97% 0 mm meteobridge W/m2
00:39 5.1 °C 4.7 °C 1026.6 hPa Calm     97% 0 mm meteobridge W/m2
00:44 5 °C 4.6 °C 1026.6 hPa Calm     97% 0 mm meteobridge W/m2
00:49 4.9 °C 4.5 °C 1027 hPa Calm     97% 0 mm meteobridge W/m2
00:54 4.9 °C 4.5 °C 1027 hPa Calm     97% 0 mm meteobridge W/m2
00:59 4.8 °C 4.4 °C 1027 hPa Calm     97% 0 mm meteobridge W/m2
01:04 4.8 °C 4.4 °C 1027 hPa Calm     97% 0 mm meteobridge W/m2
01:09 4.7 °C 4.3 °C 1027 hPa Calm     97% 0 mm meteobridge W/m2
01:14 4.7 °C 4.3 °C 1027 hPa Calm     97% 0 mm meteobridge W/m2
01:19 4.6 °C 4.2 °C 1027 hPa Calm     97% 0 mm meteobridge W/m2
01:24 4.6 °C 4.2 °C 1026.6 hPa Calm     97% 0 mm meteobridge W/m2
01:29 4.5 °C 4.1 °C 1026.6 hPa Calm     97% 0 mm meteobridge W/m2
01:34 4.4 °C 4 °C 1027 hPa Calm     97% 0 mm meteobridge W/m2
01:39 4.3 °C 3.9 °C 1027 hPa Calm     97% 0 mm meteobridge W/m2
01:44 4.3 °C 3.9 °C 1026.6 hPa Calm     97% 0 mm meteobridge W/m2
01:49 4.3 °C 3.9 °C 1026.6 hPa Calm     97% 0 mm meteobridge W/m2
01:54 4.2 °C 3.8 °C 1026.6 hPa Calm     97% 0 mm meteobridge W/m2
01:59 4.2 °C 3.8 °C 1026.6 hPa Calm     97% 0 mm meteobridge W/m2
02:04 4.1 °C 3.7 °C 1026.6 hPa Calm     97% 0 mm meteobridge W/m2
02:09 4.1 °C 3.7 °C 1027 hPa Calm     97% 0 mm meteobridge W/m2
02:14 4 °C 3.6 °C 1026.6 hPa Calm     97% 0 mm meteobridge W/m2
02:19 3.9 °C 3.5 °C 1026.6 hPa Calm     97% 0 mm meteobridge W/m2
02:24 3.9 °C 3.5 °C 1026.6 hPa Calm     97% 0 mm meteobridge W/m2
02:29 3.9 °C 3.5 °C 1026.6 hPa Calm     97% 0 mm meteobridge W/m2
02:34 3.8 °C 3.4 °C 1026.6 hPa Calm     97% 0 mm meteobridge W/m2
02:39 3.8 °C 3.4 °C 1026.6 hPa Calm     97% 0 mm meteobridge W/m2
02:44 3.8 °C 3.4 °C 1026.6 hPa Calm     97% 0 mm meteobridge W/m2
02:49 3.7 °C 3.3 °C 1026.6 hPa Calm     97% 0 mm meteobridge W/m2
02:54 3.6 °C 3.2 °C 1026.6 hPa Calm     97% 0 mm meteobridge W/m2
02:59 3.6 °C 3.2 °C 1026.6 hPa Calm     97% 0 mm meteobridge W/m2
03:04 3.6 °C 3.2 °C 1026.6 hPa Calm     97% 0 mm meteobridge W/m2
03:09 3.5 °C 3.1 °C 1026.6 hPa Calm     97% 0 mm meteobridge W/m2
03:14 3.5 °C 3.1 °C 1026.6 hPa Calm     97% 0 mm meteobridge W/m2
03:19 3.4 °C 3 °C 1026.6 hPa Calm     97% 0 mm meteobridge W/m2
03:24 3.4 °C 3 °C 1026.3 hPa Calm     97% 0 mm meteobridge W/m2
03:29 3.4 °C 3 °C 1026.6 hPa Calm     97% 0 mm meteobridge W/m2
03:34 3.3 °C 3 °C 1026.3 hPa Calm     98% 0 mm meteobridge W/m2
03:39 3.3 °C 3 °C 1026.3 hPa Calm     98% 0 mm meteobridge W/m2
03:44 3.3 °C 3 °C 1026.3 hPa Calm     98% 0 mm meteobridge W/m2
03:49 3.3 °C 3 °C 1026.3 hPa Calm     98% 0 mm meteobridge W/m2
03:54 3.2 °C 2.9 °C 1026.3 hPa Calm     98% 0 mm meteobridge W/m2
03:59 3.3 °C 3 °C 1026.3 hPa Calm     98% 0 mm meteobridge W/m2
04:04 3.2 °C 2.9 °C 1026.3 hPa Calm     98% 0 mm meteobridge W/m2
04:09 3.2 °C 2.9 °C 1026.3 hPa Calm     98% 0 mm meteobridge W/m2
04:14 3.2 °C 2.9 °C 1026.6 hPa Calm     98% 0 mm meteobridge W/m2
04:19 3.2 °C 2.9 °C 1026.3 hPa Calm     98% 0 mm meteobridge W/m2
04:24 3.2 °C 2.9 °C 1026.3 hPa Calm     98% 0 mm meteobridge W/m2
04:29 3.2 °C 2.9 °C 1026.3 hPa Calm     98% 0 mm meteobridge W/m2
04:34 3.2 °C 2.9 °C 1026.6 hPa Calm     98% 0 mm meteobridge W/m2
04:39 3.2 °C 2.9 °C 1026.3 hPa Calm     98% 0 mm meteobridge W/m2
04:44 3.1 °C 2.8 °C 1026.6 hPa Calm     98% 0 mm meteobridge W/m2
04:49 3.1 °C 2.8 °C 1026.6 hPa Calm     98% 0 mm meteobridge W/m2
04:54 3.1 °C 2.8 °C 1026.6 hPa Calm     98% 0 mm meteobridge W/m2
04:59 3.1 °C 2.8 °C 1026.6 hPa Calm     98% 0 mm meteobridge W/m2
05:04 3.1 °C 2.8 °C 1026.6 hPa Calm     98% 0 mm meteobridge W/m2
05:09 3.1 °C 2.8 °C 1026.6 hPa Calm     98% 0 mm meteobridge W/m2
05:14 3 °C 2.7 °C 1026.6 hPa Calm     98% 0 mm meteobridge W/m2
05:19 3 °C 2.7 °C 1026.6 hPa Calm     98% 0 mm meteobridge W/m2
05:24 2.9 °C 2.6 °C 1026.6 hPa Calm     98% 0 mm meteobridge W/m2
05:29 2.9 °C 2.6 °C 1026.6 hPa Calm     98% 0 mm meteobridge W/m2
05:34 2.9 °C 2.6 °C 1026.6 hPa Calm     98% 0 mm meteobridge W/m2
05:39 2.8 °C 2.5 °C 1026.6 hPa Calm     98% 0 mm meteobridge W/m2
05:44 2.8 °C 2.5 °C 1026.6 hPa Calm     98% 0 mm meteobridge W/m2
05:49 2.7 °C 2.4 °C 1026.6 hPa Calm     98% 0 mm meteobridge W/m2
05:54 2.7 °C 2.4 °C 1026.6 hPa Calm     98% 0 mm meteobridge W/m2
05:59 2.6 °C 2.3 °C 1026.6 hPa Calm     98% 0 mm meteobridge W/m2
06:04 2.6 °C 2.3 °C 1026.6 hPa Calm     98% 0 mm meteobridge W/m2
06:09 2.6 °C 2.3 °C 1026.6 hPa Calm     98% 0 mm meteobridge W/m2
06:14 2.6 °C 2.3 °C 1026.6 hPa Calm     98% 0 mm meteobridge W/m2
06:19 2.5 °C 2.2 °C 1026.6 hPa Calm     98% 0 mm meteobridge W/m2
06:24 2.4 °C 2.1 °C 1027 hPa Calm     98% 0 mm meteobridge W/m2
06:29 2.4 °C 2.1 °C 1027 hPa Calm     98% 0 mm meteobridge W/m2
06:34 2.4 °C 2.1 °C 1027 hPa Calm     98% 0 mm meteobridge W/m2
06:39 2.3 °C 2 °C 1027 hPa Calm     98% 0 mm meteobridge W/m2
06:44 2.3 °C 2 °C 1027 hPa Calm     98% 0 mm meteobridge W/m2
06:49 2.3 °C 2 °C 1027 hPa Calm     98% 0 mm meteobridge W/m2
06:54 2.2 °C 1.9 °C 1027 hPa Calm     98% 0 mm meteobridge W/m2
06:59 2.2 °C 1.9 °C 1027 hPa Calm     98% 0 mm meteobridge W/m2
07:04 2.2 °C 1.9 °C 1027 hPa Calm     98% 0 mm meteobridge W/m2
07:09 2.1 °C 1.8 °C 1027 hPa Calm     98% 0 mm meteobridge W/m2
07:14 2 °C 1.7 °C 1027 hPa Calm     98% 0 mm meteobridge W/m2
07:19 1.9 °C 1.6 °C 1027 hPa Calm     98% 0 mm meteobridge W/m2
07:24 1.9 °C 1.6 °C 1027 hPa Calm     98% 0 mm meteobridge W/m2
07:29 1.8 °C 1.5 °C 1027 hPa Calm     98% 0 mm meteobridge W/m2
07:34 1.8 °C 1.5 °C 1027 hPa Calm     98% 0 mm meteobridge W/m2
07:39 1.8 °C 1.5 °C 1026.6 hPa Calm     98% 0 mm meteobridge W/m2
07:44 1.7 °C 1.4 °C 1026.6 hPa Calm     98% 0 mm meteobridge W/m2
07:49 1.7 °C 1.4 °C 1027 hPa Calm     98% 0 mm meteobridge W/m2
07:54 1.6 °C 1.3 °C 1027 hPa Calm     98% 0 mm meteobridge W/m2
07:59 1.6 °C 1.2 °C 1027 hPa Calm     97% 0 mm meteobridge W/m2
08:04 1.5 °C 1.2 °C 1027 hPa Calm     98% 0 mm meteobridge W/m2
08:09 1.4 °C 1.1 °C 1027 hPa Calm     98% 0 mm meteobridge W/m2
08:14 1.4 °C 1.1 °C 1027 hPa Calm     98% 0 mm meteobridge W/m2
08:19 1.4 °C 1.1 °C 1027 hPa Calm     98% 0 mm meteobridge W/m2
08:24 1.4 °C 1.1 °C 1027 hPa Calm     98% 0 mm meteobridge W/m2
08:29 1.6 °C 1.3 °C 1027 hPa Calm     98% 0 mm meteobridge W/m2
08:34 1.6 °C 1.3 °C 1027.3 hPa Calm     98% 0 mm meteobridge W/m2
08:39 1.6 °C 1.3 °C 1027.3 hPa Calm     98% 0 mm meteobridge W/m2
08:44 1.7 °C 1.4 °C 1027.3 hPa Calm     98% 0 mm meteobridge W/m2
08:49 1.8 °C 1.5 °C 1027.3 hPa Calm     98% 0 mm meteobridge W/m2
08:54 1.9 °C 1.6 °C 1027.3 hPa Calm     98% 0 mm meteobridge W/m2
08:59 2 °C 1.9 °C 1027.3 hPa Calm     99% 0 mm meteobridge W/m2
09:04 2.1 °C 1.8 °C 1027.3 hPa Calm     98% 0 mm meteobridge W/m2
09:09 2.3 °C 2.2 °C 1027.3 hPa Calm     99% 0 mm meteobridge W/m2
09:14 2.6 °C 2.5 °C 1027.3 hPa Calm     99% 0 mm meteobridge W/m2
09:19 2.9 °C 2.8 °C 1027.3 hPa Calm     99% 0 mm meteobridge W/m2
09:24 3.2 °C 3.1 °C 1027.3 hPa Calm     99% 0 mm meteobridge W/m2
09:29 3.4 °C 3.3 °C 1027.3 hPa Calm     99% 0 mm meteobridge W/m2
09:34 3.7 °C 3.6 °C 1027.3 hPa Calm     99% 0 mm meteobridge W/m2
09:39 3.9 °C 3.8 °C 1027.3 hPa Calm     99% 0 mm meteobridge W/m2
09:44 4.2 °C 4.1 °C 1027.3 hPa Calm     99% 0 mm meteobridge W/m2
09:49 4.4 °C 4.3 °C 1027.3 hPa Calm     99% 0 mm meteobridge W/m2
09:54 4.9 °C 4.8 °C 1027.3 hPa Calm     99% 0 mm meteobridge W/m2
09:59 5.3 °C 5.2 °C 1027.3 hPa Calm     99% 0 mm meteobridge W/m2
10:04 5.8 °C 5.7 °C 1027.3 hPa Calm     99% 0 mm meteobridge W/m2
10:09 6.2 °C 6.1 °C 1027.3 hPa Calm     99% 0 mm meteobridge W/m2
10:14 6.5 °C 6.4 °C 1027.3 hPa Calm     99% 0 mm meteobridge W/m2
10:19 6.8 °C 6.7 °C 1027.3 hPa Calm     99% 0 mm meteobridge W/m2
10:24 7.2 °C 7.1 °C 1027.3 hPa Calm     99% 0 mm meteobridge W/m2
10:29 7.7 °C 7.6 °C 1027.3 hPa Calm     99% 0 mm meteobridge W/m2
10:34 8.1 °C 8 °C 1027.3 hPa Calm     99% 0 mm meteobridge W/m2
10:39 8.2 °C 8.1 °C 1027.7 hPa Calm     99% 0 mm meteobridge W/m2
10:44 8.3 °C 8.2 °C 1027.3 hPa Calm     99% 0 mm meteobridge W/m2
10:49 8.3 °C 8.2 °C 1027.3 hPa Calm     99% 0 mm meteobridge W/m2
10:54 8.6 °C 5.9 °C 1027.3 hPa Calm     83% 0 mm meteobridge W/m2
10:59 9 °C 5.7 °C 1027.3 hPa Calm     80% 0 mm meteobridge W/m2
11:04 9.3 °C 6.2 °C 1027.3 hPa Calm     81% 0 mm meteobridge W/m2
11:09 10.1 °C 4.7 °C 1027.3 hPa Calm     69% 0 mm meteobridge W/m2
11:14 10.3 °C 4.4 °C 1027.3 hPa Calm     67% 0 mm meteobridge W/m2
11:19 10.6 °C 5.6 °C 1027.3 hPa Calm     71% 0 mm meteobridge W/m2
11:24 10.9 °C 5.8 °C 1027.3 hPa Calm     71% 0 mm meteobridge W/m2
11:29 11.2 °C 5.1 °C 1027.3 hPa Calm     66% 0 mm meteobridge W/m2
11:34 11.6 °C 6.3 °C 1027.3 hPa Calm   1.6 km/h 70% 0 mm meteobridge W/m2
11:39 11.9 °C 4.6 °C 1027.3 hPa Calm     61% 0 mm meteobridge W/m2
11:44 12.3 °C 4 °C 1027.3 hPa Calm     57% 0 mm meteobridge W/m2
11:49 12.7 °C 5.4 °C 1027.3 hPa Calm   3.2 km/h 61% 0 mm meteobridge W/m2
11:54 13.3 °C 3.9 °C 1027.3 hPa Calm     53% 0 mm meteobridge W/m2
11:59 13.7 °C 4 °C 1027.7 hPa Calm     52% 0 mm meteobridge W/m2
12:04 13.8 °C 3.8 °C 1027.7 hPa Calm   1.6 km/h 51% 0 mm meteobridge W/m2
12:09 13.8 °C 3.6 °C 1027.7 hPa Calm   1.6 km/h 50% 0 mm meteobridge W/m2
12:14 13.9 °C 4.5 °C 1027.7 hPa Calm     53% 0 mm meteobridge W/m2
12:19 14.2 °C 3.9 °C 1027.7 hPa Calm   1.6 km/h 50% 0 mm meteobridge W/m2
12:24 14.3 °C 4.6 °C 1027.7 hPa Calm     52% 0 mm meteobridge W/m2
12:29 14.6 °C 5.1 °C 1027.7 hPa Calm     53% 0 mm meteobridge W/m2
12:34 14.8 °C 4.5 °C 1027.3 hPa Calm     50% 0 mm meteobridge W/m2
12:39 14.9 °C 3.1 °C 1027.3 hPa Calm   1.6 km/h 45% 0 mm meteobridge W/m2
12:44 15 °C 4.1 °C 1027.3 hPa Calm     48% 0 mm meteobridge W/m2
12:49 15.2 °C 3.3 °C 1027.3 hPa Calm     45% 0 mm meteobridge W/m2
12:54 15.3 °C 3.4 °C 1027.3 hPa Calm   1.6 km/h 45% 0 mm meteobridge W/m2
12:59 15.4 °C 3.5 °C 1027.3 hPa Calm   1.6 km/h 45% 0 mm meteobridge W/m2
13:04 15.6 °C 3.4 °C 1027.3 hPa Calm   1.6 km/h 44% 0 mm meteobridge W/m2
13:09 15.7 °C 3.2 °C 1027.3 hPa Calm   1.6 km/h 43% 0 mm meteobridge W/m2
13:14 15.7 °C 4.4 °C 1027.3 hPa NE 1.4 km/h 3.2 km/h 47% 0 mm meteobridge W/m2
13:19 15.8 °C 2.6 °C 1027.3 hPa Calm   1.6 km/h 41% 0 mm meteobridge W/m2
13:23 16 °C 2.4 °C 1027 hPa Calm     40% 0 mm meteobridge W/m2
13:29 16.2 °C 1.5 °C 1027.3 hPa Calm     37% 0 mm meteobridge W/m2
13:34 16.5 °C 0.6 °C 1027 hPa NNE 1.4 km/h 8 km/h 34% 0 mm meteobridge W/m2
13:39 16.8 °C -1.3 °C 1027 hPa NNW 1.4 km/h 3.2 km/h 29% 0 mm meteobridge W/m2
13:44 17.1 °C -0.2 °C 1027 hPa NW 3.2 km/h 3.2 km/h 31% 0 mm meteobridge W/m2
13:49 17.3 °C 0 °C 1027 hPa NNW 9.7 km/h 12.9 km/h 31% 0 mm meteobridge W/m2
13:54 17.5 °C -0.7 °C 1027 hPa Calm   8 km/h 29% 0 mm meteobridge W/m2
13:59 17.6 °C -1.1 °C 1026.6 hPa Calm     28% 0 mm meteobridge W/m2
14:04 17.7 °C -1 °C 1026.6 hPa West 1.4 km/h 6.4 km/h 28% 0 mm meteobridge W/m2
14:09 17.8 °C -1.5 °C 1026.6 hPa Calm   1.6 km/h 27% 0 mm meteobridge W/m2
14:14 17.8 °C -1 °C 1026.6 hPa NNW 6.4 km/h 8 km/h 28% 0 mm meteobridge W/m2
14:19 17.9 °C -0.9 °C 1026.6 hPa Calm   3.2 km/h 28% 0 mm meteobridge W/m2
14:24 17.9 °C -0.4 °C 1026.3 hPa ENE 1.4 km/h 1.6 km/h 29% 0 mm meteobridge W/m2
14:29 17.9 °C 2.6 °C 1026.3 hPa Calm   6.4 km/h 36% 0 mm meteobridge W/m2
14:34 18 °C 3.8 °C 1026.3 hPa Calm   3.2 km/h 39% 0 mm meteobridge W/m2
14:39 17.9 °C 3.7 °C 1026 hPa Calm   3.2 km/h 39% 0 mm meteobridge W/m2
14:44 17.9 °C 2.6 °C 1026 hPa North 1.4 km/h 1.6 km/h 36% 0 mm meteobridge W/m2
14:49 18.1 °C 3.9 °C 1025.6 hPa NW 1.4 km/h 9.7 km/h 39% 0 mm meteobridge W/m2
14:54 18.1 °C 2.8 °C 1025.6 hPa Calm   4.8 km/h 36% 0 mm meteobridge W/m2
14:59 18.2 °C 4 °C 1025.6 hPa NW 4.7 km/h 11.3 km/h 39% 0 mm meteobridge W/m2
15:04 18.3 °C 4.8 °C 1025.6 hPa Calm   1.6 km/h 41% 0 mm meteobridge W/m2
15:09 18.3 °C 4.5 °C 1025.6 hPa Calm     40% 0 mm meteobridge W/m2
15:14 18.2 °C 4.4 °C 1025.6 hPa NNW 1.4 km/h 4.8 km/h 40% 0 mm meteobridge W/m2
15:19 18.1 °C 4.3 °C 1025.6 hPa Calm   4.8 km/h 40% 0 mm meteobridge W/m2
15:24 18 °C 4.5 °C 1025.3 hPa Calm   4.8 km/h 41% 0 mm meteobridge W/m2
15:29 18 °C 4.2 °C 1025.3 hPa NNE 1.4 km/h 8 km/h 40% 0 mm meteobridge W/m2
15:34 17.9 °C 3.7 °C 1025.3 hPa Calm   6.4 km/h 39% 0 mm meteobridge W/m2
15:39 17.9 °C 3.4 °C 1024.9 hPa Calm     38% 0 mm meteobridge W/m2
15:44 17.9 °C 3.7 °C 1024.9 hPa Calm   1.6 km/h 39% 0 mm meteobridge W/m2
15:49 18 °C 4.9 °C 1024.9 hPa Calm   6.4 km/h 42% 0 mm meteobridge W/m2
15:54 18.1 °C 4.6 °C 1024.9 hPa Calm   1.6 km/h 41% 0 mm meteobridge W/m2
15:59 18.2 °C 4.7 °C 1024.9 hPa Calm   1.6 km/h 41% 0 mm meteobridge W/m2
16:04 18.1 °C 4.6 °C 1024.9 hPa NNW 1.4 km/h 1.6 km/h 41% 0 mm meteobridge W/m2
16:09 18.1 °C 4.6 °C 1024.9 hPa Calm   3.2 km/h 41% 0 mm meteobridge W/m2
16:14 18.1 °C 5.3 °C 1024.9 hPa Calm   1.6 km/h 43% 0 mm meteobridge W/m2
16:19 18.2 °C 5.4 °C 1024.9 hPa NW 1.4 km/h 6.4 km/h 43% 0 mm meteobridge W/m2
16:24 18.1 °C 5.3 °C 1024.9 hPa NW 3.2 km/h 3.2 km/h 43% 0 mm meteobridge W/m2
16:29 18.1 °C 5.3 °C 1024.9 hPa Calm   3.2 km/h 43% 0 mm meteobridge W/m2
16:34 18.1 °C 4.6 °C 1024.9 hPa Calm   3.2 km/h 41% 0 mm meteobridge W/m2
16:39 18.1 °C 5.7 °C 1024.9 hPa NE 1.4 km/h 6.4 km/h 44% 0 mm meteobridge W/m2
16:44 18.1 °C 5.7 °C 1024.9 hPa Calm     44% 0 mm meteobridge W/m2
16:49 18.1 °C 5.7 °C 1024.9 hPa Calm     44% 0 mm meteobridge W/m2
16:54 18.1 °C 5.3 °C 1024.9 hPa Calm   1.6 km/h 43% 0 mm meteobridge W/m2
16:59 18.1 °C 6 °C 1024.9 hPa Calm   4.8 km/h 45% 0 mm meteobridge W/m2
17:04 17.9 °C 5.5 °C 1024.9 hPa Calm   3.2 km/h 44% 0 mm meteobridge W/m2
17:09 17.8 °C 5.1 °C 1024.9 hPa East 1.4 km/h 1.6 km/h 43% 0 mm meteobridge W/m2
17:14 17.6 °C 5.2 °C 1024.9 hPa Calm     44% 0 mm meteobridge W/m2
17:19 17.4 °C 6.3 °C 1024.9 hPa Calm   1.6 km/h 48% 0 mm meteobridge W/m2
17:24 17.2 °C 6.4 °C 1024.9 hPa Calm   1.6 km/h 49% 0 mm meteobridge W/m2
17:29 17.1 °C 4.7 °C 1024.9 hPa Calm   1.6 km/h 44% 0 mm meteobridge W/m2
17:34 17.1 °C 6.3 °C 1024.9 hPa East 1.4 km/h 1.6 km/h 49% 0 mm meteobridge W/m2
17:39 16.9 °C 4.2 °C 1024.9 hPa Calm   3.2 km/h 43% 0 mm meteobridge W/m2
17:44 16.8 °C 5.1 °C 1024.9 hPa Calm   6.4 km/h 46% 0 mm meteobridge W/m2
17:49 16.7 °C 4.4 °C 1024.9 hPa Calm     44% 0 mm meteobridge W/m2
17:54 16.6 °C 5.2 °C 1024.9 hPa Calm     47% 0 mm meteobridge W/m2
17:59 16.4 °C 3.8 °C 1024.9 hPa Calm     43% 0 mm meteobridge W/m2
18:04 16.4 °C 5.1 °C 1024.9 hPa ENE 1.4 km/h 1.6 km/h 47% 0 mm meteobridge W/m2
18:09 16.3 °C 4.7 °C 1024.9 hPa Calm     46% 0 mm meteobridge W/m2
18:14 16.3 °C 4 °C 1024.9 hPa Calm   1.6 km/h 44% 0 mm meteobridge W/m2
18:19 16.3 °C 4.7 °C 1024.9 hPa Calm     46% 0 mm meteobridge W/m2
18:24 16.2 °C 5.2 °C 1025.3 hPa Calm     48% 0 mm meteobridge W/m2
18:29 16.1 °C 4.5 °C 1024.9 hPa Calm     46% 0 mm meteobridge W/m2
18:34 16.1 °C 5.1 °C 1024.9 hPa NNE 3.2 km/h 3.2 km/h 48% 0 mm meteobridge W/m2
18:39 16 °C 3.4 °C 1024.9 hPa Calm     43% 0 mm meteobridge W/m2
18:44 15.9 °C 3 °C 1024.9 hPa Calm   1.6 km/h 42% 0 mm meteobridge W/m2
18:49 15.8 °C 3.6 °C 1024.9 hPa Calm     44% 0 mm meteobridge W/m2
18:54 15.7 °C 3.5 °C 1024.9 hPa Calm     44% 0 mm meteobridge W/m2
18:59 15.6 °C 3.4 °C 1024.9 hPa Calm     44% 0 mm meteobridge W/m2
19:04 15.4 °C 4.1 °C 1025.3 hPa Calm     47% 0 mm meteobridge W/m2
19:09 15.1 °C 3.9 °C 1025.3 hPa Calm     47% 0 mm meteobridge W/m2
19:14 14.9 °C 4 °C 1025.3 hPa Calm     48% 0 mm meteobridge W/m2
19:19 14.7 °C 4.1 °C 1025.3 hPa Calm     49% 0 mm meteobridge W/m2
19:24 14.6 °C 4 °C 1025.3 hPa Calm     49% 0 mm meteobridge W/m2
19:29 14.3 °C 3.7 °C 1025.3 hPa Calm     49% 0 mm meteobridge W/m2
19:34 14.2 °C 4.2 °C 1025.3 hPa Calm     51% 0 mm meteobridge W/m2
19:39 13.9 °C 4.2 °C 1025.3 hPa Calm     52% 0 mm meteobridge W/m2
19:44 13.7 °C 4 °C 1025.6 hPa Calm     52% 0 mm meteobridge W/m2
19:49 13.4 °C 4.3 °C 1025.3 hPa Calm     54% 0 mm meteobridge W/m2
19:54 13.1 °C 4.3 °C 1025.6 hPa Calm     55% 0 mm meteobridge W/m2
19:59 12.8 °C 4.5 °C 1025.6 hPa Calm     57% 0 mm meteobridge W/m2
20:04 12.6 °C 4.1 °C 1025.6 hPa Calm     56% 0 mm meteobridge W/m2
20:09 12.3 °C 4.3 °C 1025.6 hPa Calm     58% 0 mm meteobridge W/m2
20:14 12.1 °C 4.1 °C 1025.6 hPa Calm     58% 0 mm meteobridge W/m2
20:19 11.8 °C 5 °C 1025.6 hPa Calm     63% 0 mm meteobridge W/m2
20:24 11.7 °C 4.9 °C 1025.6 hPa Calm     63% 0 mm meteobridge W/m2
20:29 11.5 °C 4.7 °C 1025.6 hPa Calm     63% 0 mm meteobridge W/m2
20:34 11.3 °C 4.5 °C 1025.6 hPa Calm     63% 0 mm meteobridge W/m2
20:39 11.1 °C 5.6 °C 1025.6 hPa Calm     69% 0 mm meteobridge W/m2
20:44 10.9 °C 5.6 °C 1025.6 hPa Calm     70% 0 mm meteobridge W/m2
20:49 10.7 °C 5.7 °C 1025.6 hPa Calm     71% 0 mm meteobridge W/m2
20:54 10.6 °C 5.8 °C 1025.6 hPa Calm     72% 0 mm meteobridge W/m2
20:59 10.4 °C 5.8 °C 1025.6 hPa Calm     73% 0 mm meteobridge W/m2
21:04 10.2 °C 5.4 °C 1025.6 hPa Calm     72% 0 mm meteobridge W/m2
21:09 10.1 °C 5.3 °C 1025.6 hPa Calm     72% 0 mm meteobridge W/m2
21:14 9.9 °C 5.1 °C 1025.6 hPa Calm     72% 0 mm meteobridge W/m2
21:19 9.8 °C 5.2 °C 1025.6 hPa Calm     73% 0 mm meteobridge W/m2
21:24 9.7 °C 5.1 °C 1025.6 hPa Calm     73% 0 mm meteobridge W/m2
21:29 9.5 °C 5.1 °C 1025.6 hPa Calm     74% 0 mm meteobridge W/m2
21:34 9.3 °C 4.9 °C 1025.6 hPa Calm     74% 0 mm meteobridge W/m2
21:39 9.2 °C 4.8 °C 1025.6 hPa Calm     74% 0 mm meteobridge W/m2
21:44 9.1 °C 4.9 °C 1025.6 hPa Calm     75% 0 mm meteobridge W/m2
21:49 8.9 °C 4.9 °C 1026 hPa Calm     76% 0 mm meteobridge W/m2
21:54 8.8 °C 4.8 °C 1025.6 hPa Calm     76% 0 mm meteobridge W/m2
21:59 8.7 °C 4.9 °C 1026 hPa Calm     77% 0 mm meteobridge W/m2
22:04 8.4 °C 5 °C 1025.6 hPa Calm     79% 0 mm meteobridge W/m2
22:09 8.3 °C 5.1 °C 1025.6 hPa Calm     80% 0 mm meteobridge W/m2
22:14 8.2 °C 5 °C 1025.6 hPa Calm     80% 0 mm meteobridge W/m2
22:19 8.1 °C 4.9 °C 1025.6 hPa Calm     80% 0 mm meteobridge W/m2
22:24 8.1 °C 5 °C 1025.6 hPa Calm     81% 0 mm meteobridge W/m2
22:29 7.9 °C 4.7 °C 1025.6 hPa Calm     80% 0 mm meteobridge W/m2
22:34 7.8 °C 4.7 °C 1025.6 hPa Calm     81% 0 mm meteobridge W/m2
22:39 7.8 °C 4.7 °C 1025.6 hPa Calm     81% 0 mm meteobridge W/m2
22:44 7.7 °C 4.8 °C 1026 hPa Calm     82% 0 mm meteobridge W/m2
22:49 7.7 °C 4.8 °C 1025.6 hPa Calm     82% 0 mm meteobridge W/m2
22:54 7.7 °C 4.8 °C 1025.6 hPa Calm     82% 0 mm meteobridge W/m2
22:59 7.7 °C 4.8 °C 1025.6 hPa Calm     82% 0 mm meteobridge W/m2
23:04 7.6 °C 4.7 °C 1025.6 hPa Calm     82% 0 mm meteobridge W/m2
23:09 7.6 °C 4.9 °C 1025.6 hPa Calm     83% 0 mm meteobridge W/m2
23:14 7.6 °C 5.1 °C 1025.6 hPa Calm     84% 0 mm meteobridge W/m2
23:19 7.6 °C 5.1 °C 1025.6 hPa Calm     84% 0 mm meteobridge W/m2
23:24 7.6 °C 5.1 °C 1025.6 hPa Calm     84% 0 mm meteobridge W/m2
23:29 7.6 °C 5.1 °C 1026 hPa Calm     84% 0 mm meteobridge W/m2
23:34 7.6 °C 5.1 °C 1026 hPa Calm     84% 0 mm meteobridge W/m2
23:39 7.5 °C 5 °C 1026 hPa Calm     84% 0 mm meteobridge W/m2
23:44 7.5 °C 5 °C 1026 hPa Calm     84% 0 mm meteobridge W/m2
23:49 7.5 °C 5.1 °C 1026 hPa Calm     85% 0 mm meteobridge W/m2
23:54 7.4 °C 5 °C 1026.3 hPa Calm     85% 0 mm meteobridge W/m2
23:59 7.4 °C 4.9 °C 1026.3 hPa Calm     84% 0 mm meteobridge W/m2
EllijayWeather
Compliments of Weather Underground - 2.5 mb